Texas General Land Office
 Texas General Land Office
 George P. Bush, Commissioner

 Oil Spill Prevention
 & Response

Texas Automated Buoy System
Real Time Ocean Observations
Supporting Oil Spill Prevention and
Response since 1995
Geochemical and Environmental Research Group

TABS Buoy R -- Texas Automated Buoy System

TABS Buoy R Conditions at 05/04/2019 16:00 UTC (05/04/2019 11:00 CDT)
29° 38.1000'N   93° 38.5020'W
AA3900 DCS - sensor depth 2m
Water Depth: 32 feet (9 meters)
Speed: 75.00 cm/s (1.46 kts) Direction: 135 °T (SE) Water Temp: 25°C (77 °F)
System Voltage: 0.0 V Signal Strength: 0.0 dB Ping Count: 0
  


IMPORTANT: Notice to Mariners


Today's Velocity Data (download)

   Date   |  Time  |   East |   North|   Speed|  Dir | WaterT |
          |  (UTC) |  (cm/s)|  (cm/s)|  (cm/s)| (°T) |  (°C)  |
==========+========+========+========+========+======+========+
05/03/2019 20:00:00   -69.08   -26.52    74.00  249.0   25.2
05/03/2019 20:30:00   -65.78   -29.29    72.01  246.0   25.2
05/03/2019 21:00:00   -63.95   -28.47    70.00  246.0   25.2
05/03/2019 21:30:00   -60.38   -39.21    71.99  237.0   25.2
05/03/2019 22:00:00   -61.72   -37.08    72.00  239.0   25.2
05/03/2019 22:30:00   -54.51   -35.40    65.00  237.0   25.2
05/03/2019 23:00:00   -50.56   -42.42    66.00  230.0   25.2
05/03/2019 23:30:00   -52.33   -52.33    74.01  225.0   25.2
05/04/2019 00:00:00   -52.07   -42.16    67.00  231.0   25.2
05/04/2019 00:30:00    54.38    25.36    60.00   65.0   25.2
05/04/2019 01:00:00   -41.01   -41.01    58.00  225.0   25.0
05/04/2019 01:30:00   -38.71   -44.53    59.00  221.0   25.0
05/04/2019 02:00:00   -37.76   -46.63    60.00  219.0   25.0
05/04/2019 02:30:00   -43.10   -38.81    58.00  228.0   25.0
05/04/2019 03:00:00   -46.92   -34.09    58.00  234.0   24.8
05/04/2019 03:30:00   -33.23   -33.23    46.99  225.0   24.8
05/04/2019 04:00:00   -32.65   -33.81    47.00  224.0   24.8
05/04/2019 04:30:00   -44.57   -26.78    52.00  239.0   24.8
05/04/2019 07:00:00   -46.14   -13.23    48.00  254.0   24.5
05/04/2019 07:30:00   -43.26   -12.40    45.00  254.0   24.5
05/04/2019 08:00:00   -43.49   -14.98    46.00  251.0   24.5
05/04/2019 08:30:00   -44.45    -7.04    45.00  261.0   24.5
05/04/2019 09:00:00   -70.43   -14.97    72.00  258.0   24.8
05/04/2019 09:30:00   -77.80   -13.72    79.00  260.0   24.5
05/04/2019 10:00:00   -70.13   -11.11    71.00  261.0   24.5
05/04/2019 10:30:00   -61.82   -16.56    64.00  255.0   15.5
05/04/2019 11:00:00   -58.92   -15.79    61.00  255.0   24.5
05/04/2019 11:30:00   -60.51   -20.84    64.00  251.0   24.5
05/04/2019 12:00:00   -78.58   -41.78    89.00  242.0   24.8
05/04/2019 12:30:00   -81.14   -21.74    84.00  255.0   24.8
05/04/2019 13:00:00   -70.34   -31.32    77.00  246.0   24.8
05/04/2019 16:00:00    53.03   -53.03    75.00  135.0   25.2



       
 

Today's Temperature - Salinity Data     (Download)


   Date   |  Time  |   Temp |   Cond |Salinity| Density|SoundVel|
          |  (UTC) |   (°C) | (ms/cm)|        | kg/m^3 |  (m/s) |
==========+========+========+========+========+========+========+
05/01/2019 22:30:00    24.40     3.14    19.79     0.00     0.00
05/01/2019 23:00:00    24.41     3.15    19.87     0.00     0.00
05/01/2019 23:30:00    24.37     3.17    19.97     0.00     0.00
05/02/2019 00:00:00    24.38     3.16    19.96     0.00     0.00
05/02/2019 00:30:00    24.37     3.17    20.01     0.00     0.00
05/02/2019 01:00:00    24.37     3.19    20.11     0.00     0.00
05/02/2019 01:30:00    24.28     3.18    20.14     0.00     0.00
05/02/2019 02:00:00    24.19     3.21    20.35     0.00     0.00
05/02/2019 02:30:00    24.21     3.22    20.42     0.00     0.00
05/02/2019 03:00:00    24.26     3.17    20.02     0.00     0.00
05/02/2019 03:30:00    24.31     3.09    19.50     0.00     0.00
05/02/2019 04:00:00    24.35     2.85    17.83     0.00     0.00
05/02/2019 04:30:00    24.34     2.68    16.64     0.00     0.00
05/02/2019 05:00:00    24.32     2.64    16.39     0.00     0.00
05/02/2019 05:30:00    24.18     2.47    15.28     0.00     0.00
05/02/2019 06:00:00    24.19     2.45    15.16     0.00     0.00
05/02/2019 06:30:00    24.17     2.38    14.67     0.00     0.00
05/02/2019 07:00:00    24.18     2.36    14.52     0.00     0.00
05/02/2019 07:30:00    24.16     2.25    13.78     0.00     0.00
05/02/2019 08:00:00    24.28     2.07    12.58     0.00     0.00
05/02/2019 08:30:00    24.35     2.04    12.38     0.00     0.00
05/02/2019 09:00:00    24.41     2.01    12.11     0.00     0.00
05/02/2019 09:30:00    24.38     1.99    11.99     0.00     0.00
05/02/2019 10:00:00    24.33     2.10    12.79     0.00     0.00
05/02/2019 10:30:00    24.27     2.04    12.35     0.00     0.00
05/02/2019 11:00:00    24.25     2.07    12.57     0.00     0.00
05/02/2019 11:30:00    24.23     2.05    12.42     0.00     0.00
05/02/2019 12:00:00    24.23     2.06    12.52     0.00     0.00
05/02/2019 12:30:00    24.24     2.05    12.43     0.00     0.00
05/02/2019 13:00:00    24.28     2.04    12.38     0.00     0.00
05/02/2019 13:30:00    24.34     2.01    12.17     0.00     0.00
05/02/2019 14:00:00    24.38     1.97    11.88     0.00     0.00
05/02/2019 14:30:00    24.38     1.95    11.77     0.00     0.00
05/02/2019 15:00:00    24.34     1.99    12.04     0.00     0.00
05/02/2019 15:30:00    24.57     2.16    13.11     0.00     0.00
05/02/2019 16:00:00    24.26     2.66    16.52     0.00     0.00
05/02/2019 16:30:00    24.30     2.68    16.64     0.00     0.00
05/02/2019 17:00:00    24.34     2.75    17.16     0.00     0.00
05/02/2019 17:30:00    24.62     2.49    15.27     0.00     0.00
05/02/2019 18:00:00    24.54     2.46    15.11     0.00     0.00
05/02/2019 18:30:00    24.55     2.57    15.82     0.00     0.00
05/02/2019 19:00:00    24.72     2.63    16.18     0.00     0.00
05/02/2019 19:30:00    25.09     2.47    14.95     0.00     0.00
05/02/2019 20:00:00    25.08     2.40    14.53     0.00     0.00
05/02/2019 20:30:00    25.12     2.35    14.19     0.00     0.00